createdAt,value
2023-05-02T00:00:57.042Z,1011.45
2023-05-02T00:02:01.338Z,1011.44
2023-05-02T00:03:05.629Z,1011.43
2023-05-02T00:04:09.937Z,1011.44
2023-05-02T00:05:14.144Z,1011.43
2023-05-02T00:06:18.444Z,1011.46
2023-05-02T00:07:22.663Z,1011.49
2023-05-02T00:08:26.993Z,1011.50
2023-05-02T00:09:31.280Z,1011.48
2023-05-02T00:10:35.566Z,1011.49
2023-05-02T00:11:39.843Z,1011.49
2023-05-02T00:12:44.169Z,1011.51
2023-05-02T00:13:48.413Z,1011.50
2023-05-02T00:14:52.776Z,1011.49
2023-05-02T00:15:57.125Z,1011.45
2023-05-02T00:17:01.542Z,1011.42
2023-05-02T00:18:05.713Z,1011.44
2023-05-02T00:19:09.959Z,1011.43
2023-05-02T00:20:14.310Z,1011.45
2023-05-02T00:21:18.530Z,1011.43
2023-05-02T00:22:22.824Z,1011.43
2023-05-02T00:23:27.180Z,1011.43
2023-05-02T00:24:45.440Z,1011.42
2023-05-02T00:25:48.650Z,1011.43
2023-05-02T00:26:52.832Z,1011.43
2023-05-02T00:27:57.124Z,1011.42
2023-05-02T00:29:01.541Z,1011.42
2023-05-02T00:30:05.678Z,1011.42
2023-05-02T00:31:10.160Z,1011.41
2023-05-02T00:32:14.352Z,1011.42
2023-05-02T00:33:18.752Z,1011.44
2023-05-02T00:34:22.989Z,1011.46
2023-05-02T00:35:27.279Z,1011.47
2023-05-02T00:36:31.588Z,1011.48
2023-05-02T00:37:35.968Z,1011.48
2023-05-02T00:38:40.198Z,1011.47
2023-05-02T00:39:44.475Z,1011.48
2023-05-02T00:40:48.725Z,1011.44
2023-05-02T00:41:53.000Z,1011.44
2023-05-02T00:42:57.436Z,1011.42
2023-05-02T00:44:01.745Z,1011.43
2023-05-02T00:45:06.037Z,1011.42
2023-05-02T00:46:10.393Z,1011.43
2023-05-02T00:47:14.603Z,1011.40
2023-05-02T00:48:19.039Z,1011.41
2023-05-02T00:49:23.271Z,1011.41
2023-05-02T00:50:27.700Z,1011.40
2023-05-02T00:51:31.902Z,1011.40
2023-05-02T00:52:36.181Z,1011.38
2023-05-02T00:53:40.495Z,1011.37
2023-05-02T00:54:44.862Z,1011.37
2023-05-02T00:55:49.116Z,1011.36
2023-05-02T00:56:53.420Z,1011.36
2023-05-02T00:58:03.700Z,1011.36
2023-05-02T00:59:09.649Z,1011.34
2023-05-02T01:00:13.064Z,1011.33
2023-05-02T01:01:17.322Z,1011.33
2023-05-02T01:02:21.667Z,1011.34
2023-05-02T01:03:26.055Z,1011.33
2023-05-02T01:04:30.419Z,1011.33
2023-05-02T01:05:34.590Z,1011.34
2023-05-02T01:06:38.924Z,1011.36
2023-05-02T01:07:43.156Z,1011.36
2023-05-02T01:08:47.409Z,1011.35
2023-05-02T01:09:51.700Z,1011.35
2023-05-02T01:10:55.930Z,1011.34
2023-05-02T01:12:00.269Z,1011.36
2023-05-02T01:13:04.564Z,1011.36
2023-05-02T01:14:08.792Z,1011.37
2023-05-02T01:15:13.200Z,1011.38
2023-05-02T01:16:17.486Z,1011.38
2023-05-02T01:17:21.709Z,1011.37
2023-05-02T01:18:26.088Z,1011.38
2023-05-02T01:19:30.348Z,1011.39
2023-05-02T01:20:37.648Z,1011.38
2023-05-02T01:21:41.008Z,1011.39
2023-05-02T01:22:45.323Z,1011.41
2023-05-02T01:23:49.563Z,1011.44
2023-05-02T01:24:53.823Z,1011.44
2023-05-02T01:25:58.159Z,1011.45
2023-05-02T01:27:02.641Z,1011.46
2023-05-02T01:28:06.835Z,1011.47
2023-05-02T01:29:11.211Z,1011.43
2023-05-02T01:30:15.592Z,1011.45
2023-05-02T01:31:19.825Z,1011.47
2023-05-02T01:32:24.179Z,1011.49
2023-05-02T01:33:28.410Z,1011.50
2023-05-02T01:34:32.773Z,1011.48
2023-05-02T01:35:37.129Z,1011.49
2023-05-02T01:36:41.355Z,1011.48
2023-05-02T01:37:45.660Z,1011.49
2023-05-02T01:38:49.950Z,1011.49
2023-05-02T01:39:54.230Z,1011.47
2023-05-02T01:40:58.496Z,1011.50
2023-05-02T01:42:02.755Z,1011.50
2023-05-02T01:43:07.060Z,1011.50
2023-05-02T01:44:11.360Z,1011.51
2023-05-02T01:45:15.713Z,1011.53
2023-05-02T01:46:20.012Z,1011.53
2023-05-02T01:47:24.213Z,1011.54
2023-05-02T01:48:28.476Z,1011.57
2023-05-02T01:49:46.852Z,1011.57
2023-05-02T01:50:49.982Z,1011.57
2023-05-02T01:51:54.278Z,1011.59
2023-05-02T01:52:58.726Z,1011.58
2023-05-02T01:54:02.835Z,1011.57
2023-05-02T01:55:07.127Z,1011.56
2023-05-02T01:56:11.501Z,1011.57
2023-05-02T01:57:15.864Z,1011.58
2023-05-02T01:58:20.204Z,1011.59
2023-05-02T01:59:24.834Z,1011.60
2023-05-02T02:00:31.976Z,1011.61
2023-05-02T02:01:35.555Z,1011.61
2023-05-02T02:02:39.712Z,1011.62
2023-05-02T02:03:43.993Z,1011.62
2023-05-02T02:04:48.506Z,1011.62
2023-05-02T02:05:52.540Z,1011.63
2023-05-02T02:06:56.849Z,1011.66
2023-05-02T02:08:01.166Z,1011.68
2023-05-02T02:09:05.500Z,1011.70
2023-05-02T02:10:15.889Z,1011.73
2023-05-02T02:11:18.874Z,1011.74
2023-05-02T02:12:23.080Z,1011.74
2023-05-02T02:13:27.405Z,1011.74
2023-05-02T02:14:31.635Z,1011.76
2023-05-02T02:15:35.932Z,1011.76
2023-05-02T02:16:40.233Z,1011.80
2023-05-02T02:17:44.519Z,1011.81
2023-05-02T02:18:48.857Z,1011.81
2023-05-02T02:19:53.174Z,1011.81
2023-05-02T02:20:57.517Z,1011.83
2023-05-02T02:22:01.731Z,1011.83
2023-05-02T02:23:05.999Z,1011.83
2023-05-02T02:24:10.348Z,1011.85
2023-05-02T02:25:17.562Z,1011.86
2023-05-02T02:26:20.938Z,1011.87
2023-05-02T02:27:25.288Z,1011.89
2023-05-02T02:28:29.611Z,1011.90
2023-05-02T02:29:33.837Z,1011.91
2023-05-02T02:30:52.175Z,1011.94
2023-05-02T02:31:55.349Z,1011.94
2023-05-02T02:32:59.604Z,1011.98
2023-05-02T02:34:03.801Z,1012.01
2023-05-02T02:35:08.004Z,1012.03
2023-05-02T02:36:12.290Z,1012.06
2023-05-02T02:37:16.597Z,1012.09
2023-05-02T02:38:34.952Z,1012.10
2023-05-02T02:39:38.079Z,1012.11
2023-05-02T02:40:42.339Z,1012.13
2023-05-02T02:41:46.678Z,1012.12
2023-05-02T02:43:04.884Z,1012.11
2023-05-02T02:44:08.058Z,1012.12
2023-05-02T02:45:12.237Z,1012.15
2023-05-02T02:46:16.487Z,1012.15
2023-05-02T02:47:20.938Z,1012.14
2023-05-02T02:48:25.195Z,1012.15
2023-05-02T02:49:29.431Z,1012.15
2023-05-02T02:50:33.720Z,1012.17
2023-05-02T02:51:38.037Z,1012.15
2023-05-02T02:52:42.377Z,1012.17
2023-05-02T02:53:46.753Z,1012.17
2023-05-02T02:54:50.966Z,1012.16
2023-05-02T02:55:55.269Z,1012.19
2023-05-02T02:56:59.736Z,1012.19
2023-05-02T02:58:03.907Z,1012.20
2023-05-02T02:59:08.267Z,1012.22
2023-05-02T03:00:12.598Z,1012.25
2023-05-02T03:01:16.865Z,1012.25
2023-05-02T03:02:21.083Z,1012.26
2023-05-02T03:03:25.494Z,1012.29
2023-05-02T03:04:29.743Z,1012.30
2023-05-02T03:05:34.059Z,1012.33
2023-05-02T03:06:38.311Z,1012.33
2023-05-02T03:07:42.532Z,1012.36
2023-05-02T03:08:46.829Z,1012.35
2023-05-02T03:09:51.111Z,1012.36
2023-05-02T03:10:55.451Z,1012.36
2023-05-02T03:11:59.767Z,1012.38
2023-05-02T03:13:03.977Z,1012.40
2023-05-02T03:14:08.277Z,1012.39
2023-05-02T03:15:26.722Z,1012.40
2023-05-02T03:16:29.813Z,1012.38
2023-05-02T03:17:34.112Z,1012.41
2023-05-02T03:18:38.348Z,1012.42
2023-05-02T03:19:42.598Z,1012.42
2023-05-02T03:20:46.894Z,1012.44
2023-05-02T03:21:51.171Z,1012.44
2023-05-02T03:23:09.582Z,1012.46
2023-05-02T03:24:12.802Z,1012.47
2023-05-02T03:25:17.062Z,1012.45
2023-05-02T03:26:21.278Z,1012.44
2023-05-02T03:27:25.584Z,1012.42
2023-05-02T03:28:29.846Z,1012.39
2023-05-02T03:29:34.144Z,1012.38
2023-05-02T03:30:38.447Z,1012.39
2023-05-02T03:31:42.687Z,1012.40
2023-05-02T03:32:47.005Z,1012.43
2023-05-02T03:33:51.368Z,1012.44
2023-05-02T03:34:55.592Z,1012.47
2023-05-02T03:35:59.879Z,1012.47
2023-05-02T03:37:04.180Z,1012.45
2023-05-02T03:38:08.472Z,1012.44
2023-05-02T03:39:12.842Z,1012.46
2023-05-02T03:40:17.128Z,1012.47
2023-05-02T03:41:21.380Z,1012.47
2023-05-02T03:42:25.683Z,1012.47
2023-05-02T03:43:29.948Z,1012.47
2023-05-02T03:44:34.425Z,1012.47
2023-05-02T03:45:38.656Z,1012.49
2023-05-02T03:46:43.064Z,1012.48
2023-05-02T03:47:47.356Z,1012.50
2023-05-02T03:48:51.551Z,1012.55
2023-05-02T03:49:55.989Z,1012.56
2023-05-02T03:51:00.171Z,1012.56
2023-05-02T03:52:04.555Z,1012.58
2023-05-02T03:53:08.808Z,1012.60
2023-05-02T03:54:13.179Z,1012.62
2023-05-02T03:55:17.504Z,1012.62
2023-05-02T03:56:21.832Z,1012.66
2023-05-02T03:57:26.028Z,1012.67
2023-05-02T03:58:30.345Z,1012.65
2023-05-02T03:59:34.735Z,1012.67
2023-05-02T04:00:39.190Z,1012.68
2023-05-02T04:01:43.483Z,1012.68
2023-05-02T04:02:47.964Z,1012.75
2023-05-02T04:03:52.132Z,1012.75
2023-05-02T04:04:56.351Z,1012.77
2023-05-02T04:06:00.860Z,1012.82
2023-05-02T04:07:04.980Z,1012.80
2023-05-02T04:08:23.398Z,1012.86
2023-05-02T04:09:26.639Z,1012.86
2023-05-02T04:10:30.870Z,1012.88
2023-05-02T04:11:35.093Z,1012.90
2023-05-02T04:12:39.359Z,1013.00
2023-05-02T04:13:43.617Z,1013.06
2023-05-02T04:14:47.877Z,1013.13
2023-05-02T04:15:52.250Z,1013.16
2023-05-02T04:16:56.532Z,1013.20
2023-05-02T04:18:00.860Z,1013.30
2023-05-02T04:19:05.042Z,1013.33
2023-05-02T04:20:09.426Z,1013.38
2023-05-02T04:21:13.916Z,1013.40
2023-05-02T04:22:18.030Z,1013.40
2023-05-02T04:23:22.409Z,1013.42
2023-05-02T04:24:40.766Z,1013.48
2023-05-02T04:25:43.876Z,1013.51
2023-05-02T04:26:48.068Z,1013.56
2023-05-02T04:27:52.408Z,1013.58
2023-05-02T04:28:56.648Z,1013.58
2023-05-02T04:30:01.269Z,1013.60
2023-05-02T04:31:05.227Z,1013.62
2023-05-02T04:32:09.428Z,1013.64
2023-05-02T04:33:13.755Z,1013.64
2023-05-02T04:34:18.012Z,1013.66
2023-05-02T04:35:22.272Z,1013.65
2023-05-02T04:36:26.703Z,1013.67
2023-05-02T04:37:30.888Z,1013.73
2023-05-02T04:38:35.152Z,1013.73
2023-05-02T04:39:39.440Z,1013.76
2023-05-02T04:40:43.785Z,1013.82
2023-05-02T04:41:48.073Z,1013.89
2023-05-02T04:42:52.387Z,1013.93
2023-05-02T04:43:56.704Z,1013.96
2023-05-02T04:45:00.949Z,1013.97
2023-05-02T04:46:05.267Z,1013.95
2023-05-02T04:47:09.524Z,1013.99
2023-05-02T04:48:13.811Z,1014.02
2023-05-02T04:49:18.065Z,1014.06
2023-05-02T04:50:22.322Z,1014.06
2023-05-02T04:51:26.698Z,1014.06
2023-05-02T04:52:30.928Z,1014.14
2023-05-02T04:53:35.172Z,1014.16
2023-05-02T04:54:39.421Z,1014.20
2023-05-02T04:55:43.764Z,1014.19
2023-05-02T04:56:48.025Z,1014.19
2023-05-02T04:57:52.245Z,1014.23
2023-05-02T04:58:56.589Z,1014.27
2023-05-02T05:00:01.124Z,1014.26
2023-05-02T05:01:05.089Z,1014.29
2023-05-02T05:02:09.236Z,1014.31
2023-05-02T05:03:13.588Z,1014.30
2023-05-02T05:04:17.808Z,1014.35
2023-05-02T05:05:22.060Z,1014.38
2023-05-02T05:06:29.213Z,1014.37
2023-05-02T05:07:32.583Z,1014.42
2023-05-02T05:08:36.750Z,1014.42
2023-05-02T05:09:41.104Z,1014.48
2023-05-02T05:10:45.304Z,1014.57
2023-05-02T05:11:49.591Z,1014.59
2023-05-02T05:12:53.842Z,1014.60
2023-05-02T05:13:58.050Z,1014.64
2023-05-02T05:15:02.349Z,1014.66
2023-05-02T05:16:06.724Z,1014.67
2023-05-02T05:17:10.962Z,1014.70
2023-05-02T05:18:15.317Z,1014.71
2023-05-02T05:20:46.513Z,1014.76
2023-05-02T05:21:50.680Z,1014.77
2023-05-02T05:22:54.923Z,1014.72
2023-05-02T05:23:59.226Z,1014.74
2023-05-02T05:25:03.483Z,1014.75
2023-05-02T05:26:07.645Z,1014.81
2023-05-02T05:27:18.036Z,1014.81
2023-05-02T05:28:20.912Z,1014.81
2023-05-02T05:29:25.167Z,1014.85
2023-05-02T05:30:29.415Z,1014.86
2023-05-02T05:31:33.615Z,1014.89
2023-05-02T05:32:37.919Z,1014.90
2023-05-02T05:33:42.096Z,1014.83
2023-05-02T05:34:46.326Z,1014.81
2023-05-02T05:35:50.515Z,1014.90
2023-05-02T05:36:54.915Z,1014.90
2023-05-02T05:37:59.116Z,1014.92
2023-05-02T05:39:03.390Z,1014.95
2023-05-02T05:40:07.717Z,1014.93
2023-05-02T05:41:11.852Z,1014.95
2023-05-02T05:42:16.246Z,1014.99
2023-05-02T05:43:20.449Z,1014.97
2023-05-02T05:44:24.719Z,1015.04
2023-05-02T05:45:28.926Z,1015.09
2023-05-02T05:46:33.181Z,1015.12
2023-05-02T05:47:37.862Z,1015.15
2023-05-02T05:48:41.710Z,1015.16
2023-05-02T05:49:46.857Z,1015.20
2023-05-02T05:50:50.727Z,1015.23
2023-05-02T05:51:55.014Z,1015.25
2023-05-02T05:52:59.227Z,1015.27
2023-05-02T05:54:03.568Z,1015.26
2023-05-02T05:55:07.761Z,1015.26
2023-05-02T05:56:12.107Z,1015.28
2023-05-02T05:57:16.293Z,1015.32
2023-05-02T05:58:20.621Z,1015.38
2023-05-02T05:59:24.774Z,1015.43
2023-05-02T06:00:29.197Z,1015.43
2023-05-02T06:01:33.459Z,1015.44
2023-05-02T06:02:37.720Z,1015.49
2023-05-02T06:03:42.090Z,1015.53
2023-05-02T06:04:46.288Z,1015.55
2023-05-02T06:05:50.579Z,1015.58
2023-05-02T06:06:55.061Z,1015.60
2023-05-02T06:07:59.139Z,1015.64
2023-05-02T06:09:03.375Z,1015.67
2023-05-02T06:10:07.532Z,1015.68
2023-05-02T06:11:12.035Z,1015.71
2023-05-02T06:12:16.198Z,1015.73
2023-05-02T06:13:20.494Z,1015.78
2023-05-02T06:14:24.702Z,1015.75
2023-05-02T06:15:28.901Z,1015.78
2023-05-02T06:16:33.237Z,1015.77
2023-05-02T06:17:37.427Z,1015.81
2023-05-02T06:18:41.754Z,1015.78
2023-05-02T06:19:45.966Z,1015.78
2023-05-02T06:20:50.243Z,1015.80
2023-05-02T06:21:54.541Z,1015.84
2023-05-02T06:22:58.794Z,1015.86
2023-05-02T06:24:03.072Z,1015.88
2023-05-02T06:25:07.322Z,1015.89
2023-05-02T06:26:11.681Z,1015.86
2023-05-02T06:27:15.934Z,1015.89
2023-05-02T06:28:20.164Z,1015.95
2023-05-02T06:29:24.444Z,1015.95
2023-05-02T06:30:28.697Z,1015.96
2023-05-02T06:32:41.908Z,1015.98
2023-05-02T06:33:46.052Z,1016.01
2023-05-02T06:34:50.275Z,1016.01
2023-05-02T06:35:54.506Z,1016.01
2023-05-02T06:36:58.760Z,1016.02
2023-05-02T06:38:02.974Z,1016.05
2023-05-02T06:39:07.262Z,1016.00
2023-05-02T06:40:11.563Z,1016.02
2023-05-02T06:41:18.003Z,1016.03
2023-05-02T06:42:20.039Z,1016.09
2023-05-02T06:43:24.297Z,1016.09
2023-05-02T06:44:28.556Z,1016.12
2023-05-02T06:45:32.800Z,1016.11
2023-05-02T06:46:37.209Z,1016.12
2023-05-02T06:47:41.493Z,1016.19
2023-05-02T06:48:45.760Z,1016.18
2023-05-02T06:49:49.997Z,1016.20
2023-05-02T06:50:54.230Z,1016.21
2023-05-02T06:51:58.489Z,1016.23
2023-05-02T06:53:02.841Z,1016.26
2023-05-02T06:54:07.069Z,1016.28
2023-05-02T06:55:11.455Z,1016.36
2023-05-02T06:56:15.707Z,1016.31
2023-05-02T06:57:19.839Z,1016.35
2023-05-02T06:58:24.447Z,1016.40
2023-05-02T06:59:28.543Z,1016.40
2023-05-02T07:00:32.875Z,1016.39
2023-05-02T07:01:37.211Z,1016.39
2023-05-02T07:02:41.337Z,1016.41
2023-05-02T07:03:45.701Z,1016.49
2023-05-02T07:04:48.819Z,1016.48
2023-05-02T07:05:53.117Z,1016.48
2023-05-02T07:06:57.414Z,1016.51
2023-05-02T07:08:01.666Z,1016.52
2023-05-02T07:09:05.885Z,1016.54
2023-05-02T07:10:10.264Z,1016.51
2023-05-02T07:11:14.535Z,1016.55
2023-05-02T07:12:18.890Z,1016.59
2023-05-02T07:13:23.185Z,1016.57
2023-05-02T07:14:27.448Z,1016.58
2023-05-02T07:15:31.673Z,1016.58
2023-05-02T07:16:36.028Z,1016.60
2023-05-02T07:17:40.272Z,1016.64
2023-05-02T07:18:44.587Z,1016.64
2023-05-02T07:19:48.874Z,1016.66
2023-05-02T07:20:53.129Z,1016.64
2023-05-02T07:21:57.388Z,1016.67
2023-05-02T07:23:01.679Z,1016.72
2023-05-02T07:24:05.958Z,1016.72
2023-05-02T07:25:10.200Z,1016.78
2023-05-02T07:26:14.459Z,1016.78
2023-05-02T07:27:18.810Z,1016.79
2023-05-02T07:28:23.000Z,1016.82
2023-05-02T07:29:27.365Z,1016.83
2023-05-02T07:30:31.624Z,1016.87
2023-05-02T07:31:35.863Z,1016.89
2023-05-02T07:32:40.105Z,1016.93
2023-05-02T07:33:44.316Z,1016.89
2023-05-02T07:34:48.614Z,1016.98
2023-05-02T07:35:52.869Z,1016.98
2023-05-02T07:36:57.162Z,1016.99
2023-05-02T07:38:01.412Z,1017.00
2023-05-02T07:39:05.795Z,1017.02
2023-05-02T07:40:10.030Z,1017.03
2023-05-02T07:41:14.310Z,1017.06
2023-05-02T07:42:18.557Z,1017.02
2023-05-02T07:43:22.832Z,1017.05
2023-05-02T07:44:27.119Z,1017.08
2023-05-02T07:45:31.341Z,1017.11
2023-05-02T07:46:35.723Z,1017.12
2023-05-02T07:47:39.926Z,1017.11
2023-05-02T07:48:44.178Z,1017.13
2023-05-02T07:49:48.447Z,1017.13
2023-05-02T07:50:52.719Z,1017.15
2023-05-02T07:51:56.997Z,1017.15
2023-05-02T07:53:02.165Z,1017.17
2023-05-02T07:54:06.157Z,1017.14
2023-05-02T07:55:10.359Z,1017.13
2023-05-02T07:56:14.678Z,1017.19
2023-05-02T07:57:19.048Z,1017.16
2023-05-02T07:58:23.267Z,1017.18
2023-05-02T07:59:27.656Z,1017.21
2023-05-02T08:00:31.875Z,1017.20
2023-05-02T08:01:36.183Z,1017.24
2023-05-02T08:02:40.592Z,1017.24
2023-05-02T08:03:44.992Z,1017.25
2023-05-02T08:04:55.120Z,1017.24
2023-05-02T08:05:57.998Z,1017.23
2023-05-02T08:07:02.259Z,1017.23
2023-05-02T08:08:06.588Z,1017.23
2023-05-02T08:09:10.825Z,1017.25
2023-05-02T08:10:15.096Z,1017.28
2023-05-02T08:11:20.432Z,1017.27
2023-05-02T08:12:26.762Z,1017.32
2023-05-02T08:13:30.124Z,1017.34
2023-05-02T08:14:34.396Z,1017.32
2023-05-02T08:15:39.244Z,1017.35
2023-05-02T08:16:46.080Z,1017.34
2023-05-02T08:17:47.601Z,1017.36
2023-05-02T08:18:51.822Z,1017.35
2023-05-02T08:19:56.957Z,1017.38
2023-05-02T08:21:00.930Z,1017.41
2023-05-02T08:22:05.166Z,1017.47
2023-05-02T08:23:09.517Z,1017.46
2023-05-02T08:24:13.757Z,1017.50
2023-05-02T08:25:18.055Z,1017.48
2023-05-02T08:26:22.351Z,1017.51
2023-05-02T08:27:26.618Z,1017.57
2023-05-02T08:28:30.913Z,1017.54
2023-05-02T08:29:35.192Z,1017.55
2023-05-02T08:30:39.425Z,1017.61
2023-05-02T08:31:43.707Z,1017.61
2023-05-02T08:32:48.004Z,1017.62
2023-05-02T08:33:52.226Z,1017.66
2023-05-02T08:34:56.505Z,1017.66
2023-05-02T08:36:00.756Z,1017.65
2023-05-02T08:37:05.013Z,1017.69
2023-05-02T08:38:09.374Z,1017.73
2023-05-02T08:39:13.716Z,1017.72
2023-05-02T08:40:27.158Z,1017.73
2023-05-02T08:41:22.215Z,1017.75
2023-05-02T08:42:26.506Z,1017.77
2023-05-02T08:43:30.815Z,1017.72
2023-05-02T08:44:35.125Z,1017.74
2023-05-02T08:45:39.424Z,1017.72
2023-05-02T08:46:43.766Z,1017.73
2023-05-02T08:47:48.017Z,1017.72
2023-05-02T08:48:52.347Z,1017.82
2023-05-02T08:49:56.628Z,1017.81
2023-05-02T08:51:00.980Z,1017.84
2023-05-02T08:52:05.197Z,1017.88
2023-05-02T08:53:09.582Z,1017.87
2023-05-02T08:54:13.916Z,1017.90
2023-05-02T08:55:18.247Z,1017.90
2023-05-02T08:56:22.555Z,1017.90
2023-05-02T08:57:26.812Z,1017.91
2023-05-02T08:58:31.151Z,1017.90
2023-05-02T08:59:35.505Z,1017.92
2023-05-02T09:00:39.823Z,1018.00
2023-05-02T09:01:44.244Z,1018.04
2023-05-02T09:02:48.487Z,1018.03
2023-05-02T09:03:52.801Z,1018.03
2023-05-02T09:04:57.091Z,1017.99
2023-05-02T09:06:01.324Z,1017.99
2023-05-02T09:07:05.729Z,1017.99
2023-05-02T09:08:09.953Z,1018.01
2023-05-02T09:09:18.983Z,1018.05
2023-05-02T09:10:20.755Z,1018.11
2023-05-02T09:11:24.980Z,1018.13
2023-05-02T09:12:29.336Z,1018.13
2023-05-02T09:13:33.623Z,1018.12
2023-05-02T09:14:37.874Z,1018.13
2023-05-02T09:15:42.174Z,1018.11
2023-05-02T09:16:46.664Z,1018.17
2023-05-02T09:17:50.786Z,1018.20
2023-05-02T09:18:55.085Z,1018.22
2023-05-02T09:19:59.454Z,1018.26
2023-05-02T09:21:03.726Z,1018.33
2023-05-02T09:22:08.075Z,1018.32
2023-05-02T09:23:12.314Z,1018.31
2023-05-02T09:24:16.677Z,1018.34
2023-05-02T09:25:20.934Z,1018.33
2023-05-02T09:26:25.225Z,1018.36
2023-05-02T09:27:29.609Z,1018.33
2023-05-02T09:28:33.914Z,1018.33
2023-05-02T09:29:38.261Z,1018.32
2023-05-02T09:30:42.636Z,1018.33
2023-05-02T09:31:55.725Z,1018.30
2023-05-02T09:32:51.263Z,1018.35
2023-05-02T09:33:55.432Z,1018.31
2023-05-02T09:35:00.098Z,1018.29
2023-05-02T09:36:04.114Z,1018.31
2023-05-02T09:37:08.473Z,1018.33
2023-05-02T09:38:12.842Z,1018.37
2023-05-02T09:39:17.119Z,1018.36
2023-05-02T09:40:21.446Z,1018.39
2023-05-02T09:41:25.841Z,1018.39
2023-05-02T09:42:30.076Z,1018.43
2023-05-02T09:43:34.451Z,1018.42
2023-05-02T09:44:38.710Z,1018.46
2023-05-02T09:45:43.147Z,1018.51
2023-05-02T09:46:47.366Z,1018.54
2023-05-02T09:47:51.713Z,1018.53
2023-05-02T09:48:56.082Z,1018.58
2023-05-02T09:50:00.345Z,1018.59
2023-05-02T09:51:04.633Z,1018.61
2023-05-02T09:52:08.905Z,1018.59
2023-05-02T09:53:13.281Z,1018.63
2023-05-02T09:54:17.551Z,1018.65
2023-05-02T09:55:27.924Z,1018.69
2023-05-02T09:56:30.971Z,1018.74
2023-05-02T09:57:49.264Z,1018.76
2023-05-02T09:58:52.424Z,1018.77
2023-05-02T09:59:56.620Z,1018.75
2023-05-02T10:01:00.902Z,1018.75
2023-05-02T10:02:05.399Z,1018.83
2023-05-02T10:03:09.581Z,1018.77
2023-05-02T10:04:14.255Z,1018.75
2023-05-02T10:05:18.269Z,1018.71
2023-05-02T10:06:22.803Z,1018.72
2023-05-02T10:07:27.031Z,1018.77
2023-05-02T10:08:31.327Z,1018.80
2023-05-02T10:09:49.566Z,1018.82
2023-05-02T10:10:52.741Z,1018.80
2023-05-02T10:11:56.962Z,1018.80
2023-05-02T10:13:01.228Z,1018.82
2023-05-02T10:14:05.636Z,1018.84
2023-05-02T10:15:09.876Z,1018.85
2023-05-02T10:16:14.284Z,1018.94
2023-05-02T10:17:18.441Z,1018.93
2023-05-02T10:18:22.835Z,1018.88
2023-05-02T10:19:27.271Z,1018.95
2023-05-02T10:20:31.539Z,1018.98
2023-05-02T10:21:35.782Z,1018.98
2023-05-02T10:22:40.146Z,1018.95
2023-05-02T10:23:44.421Z,1018.94
2023-05-02T10:24:48.694Z,1018.95
2023-05-02T10:25:53.016Z,1018.90
2023-05-02T10:26:57.310Z,1018.91
2023-05-02T10:28:01.584Z,1018.87
2023-05-02T10:29:05.874Z,1018.84
2023-05-02T10:30:10.318Z,1018.83
2023-05-02T10:31:14.739Z,1018.86
2023-05-02T10:32:18.946Z,1018.87
2023-05-02T10:33:23.195Z,1018.95
2023-05-02T10:34:27.495Z,1018.92
2023-05-02T10:35:34.832Z,1018.95
2023-05-02T10:36:38.212Z,1018.97
2023-05-02T10:37:42.492Z,1018.98
2023-05-02T10:38:46.795Z,1018.99
2023-05-02T10:39:51.058Z,1018.98
2023-05-02T10:40:55.337Z,1019.01
2023-05-02T10:41:59.716Z,1018.96
2023-05-02T10:43:04.020Z,1018.94
2023-05-02T10:44:08.303Z,1019.00
2023-05-02T10:45:12.635Z,1019.02
2023-05-02T10:46:16.921Z,1018.96
2023-05-02T10:47:21.177Z,1018.96
2023-05-02T10:48:25.517Z,1018.91
2023-05-02T10:49:29.809Z,1018.98
2023-05-02T10:50:34.115Z,1019.03
2023-05-02T10:51:38.425Z,1019.00
2023-05-02T10:52:42.742Z,1018.98
2023-05-02T10:53:47.096Z,1019.02
2023-05-02T10:54:51.621Z,1018.96
2023-05-02T10:56:09.822Z,1018.95
2023-05-02T10:57:13.080Z,1018.97
2023-05-02T10:58:17.435Z,1018.97
2023-05-02T10:59:21.715Z,1018.99
2023-05-02T11:00:26.079Z,1018.95
2023-05-02T11:01:30.572Z,1018.93
2023-05-02T11:02:34.876Z,1018.89
2023-05-02T11:03:53.043Z,1018.97
2023-05-02T11:05:10.290Z,1019.06
2023-05-02T11:06:13.340Z,1019.04
2023-05-02T11:07:17.680Z,1019.03
2023-05-02T11:08:23.206Z,1019.01
2023-05-02T11:09:26.290Z,1019.00
2023-05-02T11:10:30.593Z,1019.01
2023-05-02T11:11:34.947Z,1018.96
2023-05-02T11:12:39.135Z,1019.00
2023-05-02T11:13:43.427Z,1018.96
2023-05-02T11:14:47.919Z,1018.98
2023-05-02T11:15:52.124Z,1018.96
2023-05-02T11:16:56.517Z,1018.95
2023-05-02T11:18:00.775Z,1018.94
2023-05-02T11:19:11.091Z,1018.96
2023-05-02T11:20:14.032Z,1018.98
2023-05-02T11:21:18.414Z,1018.98
2023-05-02T11:22:22.718Z,1018.97
2023-05-02T11:23:26.979Z,1018.98
2023-05-02T11:24:31.351Z,1019.00
2023-05-02T11:25:41.722Z,1019.00
2023-05-02T11:26:44.735Z,1019.00
2023-05-02T11:27:49.003Z,1018.99
2023-05-02T11:28:53.337Z,1019.07
2023-05-02T11:29:57.514Z,1019.04
2023-05-02T11:31:01.964Z,1019.03
2023-05-02T11:32:06.413Z,1019.05
2023-05-02T11:33:10.701Z,1019.00
2023-05-02T11:34:14.957Z,1019.02
2023-05-02T11:35:19.321Z,1019.03
2023-05-02T11:36:23.657Z,1019.13
2023-05-02T11:37:28.755Z,1019.13
2023-05-02T11:38:32.339Z,1019.14
2023-05-02T11:39:36.770Z,1019.14
2023-05-02T11:40:41.018Z,1019.12
2023-05-02T11:41:45.359Z,1019.19
2023-05-02T11:42:49.650Z,1019.22
2023-05-02T11:43:54.113Z,1019.22
2023-05-02T11:44:59.036Z,1019.23
2023-05-02T11:46:03.060Z,1019.25
2023-05-02T11:47:07.174Z,1019.30
2023-05-02T11:48:11.558Z,1019.30
2023-05-02T11:49:15.820Z,1019.27
2023-05-02T11:50:20.076Z,1019.29
2023-05-02T11:51:24.362Z,1019.32
2023-05-02T11:52:28.724Z,1019.29
2023-05-02T11:53:33.048Z,1019.37
2023-05-02T11:54:37.418Z,1019.31
2023-05-02T11:55:42.041Z,1019.23
2023-05-02T11:56:46.388Z,1019.18
2023-05-02T11:57:50.769Z,1019.16
2023-05-02T11:58:55.005Z,1019.14
2023-05-02T11:59:59.315Z,1019.22
2023-05-02T12:01:03.632Z,1019.22
2023-05-02T12:02:08.214Z,1019.28
2023-05-02T12:03:12.507Z,1019.29
2023-05-02T12:04:16.720Z,1019.32
2023-05-02T12:05:21.224Z,1019.33
2023-05-02T12:06:39.751Z,1019.32
2023-05-02T12:07:42.991Z,1019.30
2023-05-02T12:08:47.306Z,1019.35
2023-05-02T12:09:51.627Z,1019.36
2023-05-02T12:10:55.902Z,1019.35
2023-05-02T12:12:00.276Z,1019.34
2023-05-02T12:13:04.607Z,1019.34
2023-05-02T12:14:08.916Z,1019.32
2023-05-02T12:15:13.406Z,1019.36
2023-05-02T12:16:17.674Z,1019.37
2023-05-02T12:17:22.028Z,1019.41
2023-05-02T12:18:26.374Z,1019.39
2023-05-02T12:19:30.873Z,1019.36
2023-05-02T12:20:35.186Z,1019.42
2023-05-02T12:21:39.538Z,1019.44
2023-05-02T12:22:43.786Z,1019.54
2023-05-02T12:23:48.105Z,1019.51
2023-05-02T12:24:52.467Z,1019.58
2023-05-02T12:25:56.805Z,1019.58
2023-05-02T12:27:01.115Z,1019.59
2023-05-02T12:28:05.433Z,1019.60
2023-05-02T12:29:09.877Z,1019.60
2023-05-02T12:30:14.203Z,1019.59
2023-05-02T12:31:18.512Z,1019.60
2023-05-02T12:32:22.882Z,1019.58
2023-05-02T12:33:27.333Z,1019.61
2023-05-02T12:34:31.661Z,1019.63
2023-05-02T12:35:36.052Z,1019.64
2023-05-02T12:36:40.380Z,1019.68
2023-05-02T12:37:45.567Z,1019.70
2023-05-02T12:38:49.037Z,1019.72
2023-05-02T12:39:53.400Z,1019.75
2023-05-02T12:40:57.872Z,1019.75
2023-05-02T12:42:02.062Z,1019.71
2023-05-02T12:43:06.411Z,1019.75
2023-05-02T12:44:10.743Z,1019.69
2023-05-02T12:45:15.256Z,1019.75
2023-05-02T12:46:19.594Z,1019.77
2023-05-02T12:47:24.025Z,1019.77
2023-05-02T12:48:28.288Z,1019.80
2023-05-02T12:49:32.577Z,1019.84
2023-05-02T12:50:37.065Z,1019.80
2023-05-02T12:51:41.500Z,1019.83
2023-05-02T12:52:45.722Z,1019.82
2023-05-02T12:53:50.200Z,1019.86
2023-05-02T12:54:54.477Z,1019.86
2023-05-02T12:55:58.884Z,1019.86
2023-05-02T12:57:03.371Z,1019.86
2023-05-02T12:58:07.693Z,1019.91
2023-05-02T12:59:12.093Z,1019.89
2023-05-02T13:00:16.375Z,1019.91
2023-05-02T13:01:20.886Z,1019.94
2023-05-02T13:02:25.312Z,1019.91
2023-05-02T13:03:29.623Z,1019.93
2023-05-02T13:04:34.017Z,1019.96